CheckWX is a tool to help pilots better visualize weather data.  It is not intended as a substitute for an official pre-flight weather briefing.

15:01:28 UTC

AYPY TAF
Port Moresby Jacksons International Airport
Port Moresby, Papua New Guinea
TAF AYPY 160901Z 1612/1712 16008KT 9999 -R ADZ Z BKN040 FM162200 15010KT 9999 FEW018 BKN140

Jul-16@
12:00 UTC

Jul-16 @ 12:00 UTC

Jul-16@
22:00 UTC

Jul-16 @ 22:00 UTC

TAF AYPY 160901Z 1612/1712 16008KT 9999 -R ADZ Z BKN040
Wind
  • 160° at 8 KTS
Conditions
Drizzle
Cloud Levels
  • Broken at 4,000' AGL

Jul-16@
22:00 UTC

Jul-16 @ 22:00 UTC

Jul-17@
12:00 UTC

Jul-17 @ 12:00 UTC

FM162200 15010KT 9999 FEW018 BKN140

From

From Standard forecast or significant change

Wind
  • 150° at 10 KTS
Cloud Levels
  • Few at 1,800' AGL
  • Broken at 14,000' AGL